Data Viewer
| City | State | Eastern Time | Source | Temp | DewPt | RH | BP | 5 Min Precip | Wind Speed | Wind Dir | 5 Min Wind Max | 5 Min Wind Max Dir |
|---|---|---|---|---|---|---|---|---|---|---|---|---|
| Pemberton | NJ | 2026-05-03 20:05 | NJDOT | 53 | 29 | 39 | ||||||
| Pemberton | NJ | 2026-05-04 12:30 | NJDOT | 71 | 40 | 32 | ||||||
| Pemberton | NJ | 2026-05-04 11:25 | NJDOT | 69 | 42 | 37 | ||||||
| Pemberton | NJ | 2026-05-04 11:30 | NJDOT | 69 | 41 | 36 | ||||||
| Pemberton | NJ | 2026-05-04 11:35 | NJDOT | 69 | 40 | 35 | ||||||
| Pemberton | NJ | 2026-05-04 11:40 | NJDOT | 69 | 40 | 34 | ||||||
| Pemberton | NJ | 2026-05-04 11:45 | NJDOT | 71 | 41 | 34 | ||||||
| Pemberton | NJ | 2026-05-04 11:50 | NJDOT | 70 | 40 | 33 | ||||||
| Pemberton | NJ | 2026-05-04 12:00 | NJDOT | 70 | 40 | 33 | ||||||
| Pemberton | NJ | 2026-05-04 12:05 | NJDOT | 71 | 40 | 33 | ||||||
| Pemberton | NJ | 2026-05-04 12:10 | NJDOT | 71 | 40 | 32 | ||||||
| Pemberton | NJ | 2026-05-04 12:15 | NJDOT | 71 | 39 | 32 | ||||||
| Pemberton | NJ | 2026-05-04 12:20 | NJDOT | 70 | 40 | 32 | ||||||
| Pemberton | NJ | 2026-05-04 12:25 | NJDOT | 71 | 40 | 32 | ||||||
| Pemberton | NJ | 2026-05-04 12:35 | NJDOT | 71 | 39 | 31 | ||||||
| Pemberton | NJ | 2026-05-04 11:15 | NJDOT | 68 | 42 | 38 | ||||||
| Pemberton | NJ | 2026-05-04 13:00 | NJDOT | 72 | 40 | 31 | ||||||
| Pemberton | NJ | 2026-05-04 13:05 | NJDOT | 71 | 40 | 31 | ||||||
| Pemberton | NJ | 2026-05-04 13:10 | NJDOT | 72 | 40 | 31 | ||||||
| Pemberton | NJ | 2026-05-04 13:15 | NJDOT | 73 | 41 | 31 | ||||||
| Pemberton | NJ | 2026-05-04 13:20 | NJDOT | 72 | 40 | 30 | ||||||
| Pemberton | NJ | 2026-05-04 13:25 | NJDOT | 72 | 40 | 30 | ||||||
| Pemberton | NJ | 2026-05-04 13:30 | NJDOT | 73 | 40 | 30 | ||||||
| Pemberton | NJ | 2026-05-04 13:35 | NJDOT | 73 | 40 | 30 | ||||||
| Pemberton | NJ | 2026-05-04 13:40 | NJDOT | 73 | 40 | 30 | ||||||
| Pemberton | NJ | 2026-05-04 13:45 | NJDOT | 73 | 40 | 30 | ||||||
| Pemberton | NJ | 2026-05-04 13:50 | NJDOT | 74 | 40 | 29 | ||||||
| Pemberton | NJ | 2026-05-04 14:00 | NJDOT | 73 | 40 | 29 | ||||||
| Pemberton | NJ | 2026-05-04 14:05 | NJDOT | 73 | 39 | 29 | ||||||
| Pemberton | NJ | 2026-05-04 11:20 | NJDOT | 68 | 42 | 38 | ||||||
| Pemberton | NJ | 2026-05-04 11:10 | NJDOT | 67 | 41 | 38 | ||||||
| Pemberton | NJ | 2026-05-04 14:15 | NJDOT | 74 | 40 | 29 | ||||||
| Pemberton | NJ | 2026-05-04 09:40 | NJDOT | 62 | 42 | 47 | ||||||
| Pemberton | NJ | 2026-05-04 08:35 | NJDOT | 54 | 45 | 71 | ||||||
| Pemberton | NJ | 2026-05-04 08:40 | NJDOT | 55 | 45 | 70 | ||||||
| Pemberton | NJ | 2026-05-04 08:45 | NJDOT | 55 | 45 | 67 | ||||||
| Pemberton | NJ | 2026-05-04 08:50 | NJDOT | 56 | 45 | 65 | ||||||
| Pemberton | NJ | 2026-05-04 09:00 | NJDOT | 58 | 44 | 59 | ||||||
| Pemberton | NJ | 2026-05-04 09:05 | NJDOT | 58 | 43 | 57 | ||||||
| Pemberton | NJ | 2026-05-04 09:10 | NJDOT | 59 | 43 | 54 | ||||||
| Pemberton | NJ | 2026-05-04 09:15 | NJDOT | 59 | 42 | 53 | ||||||
| Pemberton | NJ | 2026-05-04 09:20 | NJDOT | 60 | 42 | 52 | ||||||
| Pemberton | NJ | 2026-05-04 09:25 | NJDOT | 60 | 42 | 50 | ||||||
| Pemberton | NJ | 2026-05-04 09:30 | NJDOT | 61 | 42 | 49 | ||||||
| Pemberton | NJ | 2026-05-04 09:35 | NJDOT | 61 | 41 | 48 | ||||||
| Pemberton | NJ | 2026-05-04 09:45 | NJDOT | 62 | 42 | 47 | ||||||
| Pemberton | NJ | 2026-05-04 11:05 | NJDOT | 67 | 41 | 38 | ||||||
| Pemberton | NJ | 2026-05-04 09:50 | NJDOT | 63 | 42 | 47 | ||||||
| Pemberton | NJ | 2026-05-04 10:00 | NJDOT | 63 | 43 | 46 | ||||||
| Pemberton | NJ | 2026-05-04 10:05 | NJDOT | 64 | 42 | 46 | ||||||
| Pemberton | NJ | 2026-05-04 10:10 | NJDOT | 64 | 42 | 45 | ||||||
| Pemberton | NJ | 2026-05-04 10:15 | NJDOT | 64 | 43 | 45 | ||||||
| Pemberton | NJ | 2026-05-04 10:20 | NJDOT | 64 | 42 | 44 | ||||||
| Pemberton | NJ | 2026-05-04 10:25 | NJDOT | 65 | 42 | 44 | ||||||
| Pemberton | NJ | 2026-05-04 10:30 | NJDOT | 65 | 43 | 43 | ||||||
| Pemberton | NJ | 2026-05-04 10:35 | NJDOT | 65 | 43 | 43 | ||||||
| Pemberton | NJ | 2026-05-04 10:40 | NJDOT | 66 | 43 | 42 | ||||||
| Pemberton | NJ | 2026-05-04 10:45 | NJDOT | 66 | 42 | 42 | ||||||
| Pemberton | NJ | 2026-05-04 10:50 | NJDOT | 67 | 43 | 41 | ||||||
| Pemberton | NJ | 2026-05-04 11:00 | NJDOT | 68 | 43 | 40 | ||||||
| Pemberton | NJ | 2026-05-04 14:10 | NJDOT | 73 | 40 | 29 | ||||||
| Pemberton | NJ | 2026-05-04 14:20 | NJDOT | 75 | 40 | 29 | ||||||
| Pemberton | NJ | 2026-05-04 08:25 | NJDOT | 53 | 46 | 77 | ||||||
| Pemberton | NJ | 2026-05-04 18:25 | NJDOT | 74 | 40 | 29 | ||||||
| Pemberton | NJ | 2026-05-04 17:20 | NJDOT | 76 | 41 | 28 | ||||||
| Pemberton | NJ | 2026-05-04 17:25 | NJDOT | 76 | 41 | 28 | ||||||
| Pemberton | NJ | 2026-05-04 17:30 | NJDOT | 76 | 41 | 28 | ||||||
| Pemberton | NJ | 2026-05-04 17:35 | NJDOT | 76 | 41 | 28 | ||||||
| Pemberton | NJ | 2026-05-04 17:40 | NJDOT | 75 | 40 | 28 | ||||||
| Pemberton | NJ | 2026-05-04 17:45 | NJDOT | 76 | 41 | 28 | ||||||
| Pemberton | NJ | 2026-05-04 17:50 | NJDOT | 76 | 41 | 28 | ||||||
| Pemberton | NJ | 2026-05-04 18:00 | NJDOT | 75 | 40 | 28 | ||||||
| Pemberton | NJ | 2026-05-04 18:05 | NJDOT | 75 | 40 | 28 | ||||||
| Pemberton | NJ | 2026-05-04 18:10 | NJDOT | 75 | 40 | 28 | ||||||
| Pemberton | NJ | 2026-05-04 18:15 | NJDOT | 74 | 40 | 29 | ||||||
| Pemberton | NJ | 2026-05-04 18:20 | NJDOT | 74 | 40 | 29 | ||||||
| Pemberton | NJ | 2026-05-04 18:30 | NJDOT | 74 | 40 | 29 | ||||||
| Pemberton | NJ | 2026-05-04 17:10 | NJDOT | 77 | 41 | 27 | ||||||
| Pemberton | NJ | 2026-05-04 18:35 | NJDOT | 73 | 40 | 29 | ||||||
| Pemberton | NJ | 2026-05-04 18:40 | NJDOT | 73 | 40 | 29 | ||||||
| Pemberton | NJ | 2026-05-04 19:00 | NJDOT | 72 | 39 | 30 | ||||||
| Pemberton | NJ | 2026-05-04 19:05 | NJDOT | 71 | 39 | 30 | ||||||
| Pemberton | NJ | 2026-05-04 19:10 | NJDOT | 71 | 39 | 30 | ||||||
| Pemberton | NJ | 2026-05-04 19:15 | NJDOT | 71 | 39 | 31 | ||||||
| Pemberton | NJ | 2026-05-04 19:20 | NJDOT | 71 | 39 | 31 | ||||||
| Pemberton | NJ | 2026-05-04 19:25 | NJDOT | 70 | 39 | 32 | ||||||
| Pemberton | NJ | 2026-05-04 19:30 | NJDOT | 70 | 39 | 32 | ||||||
| Pemberton | NJ | 2026-05-04 19:35 | NJDOT | 69 | 40 | 34 | ||||||
| Pemberton | NJ | 2026-05-04 19:40 | NJDOT | 68 | 40 | 36 | ||||||
| Pemberton | NJ | 2026-05-04 19:45 | NJDOT | 67 | 41 | 38 | ||||||
| Pemberton | NJ | 2026-05-04 19:50 | NJDOT | 67 | 41 | 39 | ||||||
| Pemberton | NJ | 2026-05-04 17:15 | NJDOT | 76 | 41 | 28 | ||||||
| Pemberton | NJ | 2026-05-04 17:05 | NJDOT | 77 | 41 | 27 | ||||||
| Pemberton | NJ | 2026-05-04 14:25 | NJDOT | 74 | 40 | 29 | ||||||
| Pemberton | NJ | 2026-05-04 15:35 | NJDOT | 77 | 41 | 28 | ||||||
| Pemberton | NJ | 2026-05-04 14:30 | NJDOT | 75 | 41 | 28 | ||||||
| Pemberton | NJ | 2026-05-04 14:35 | NJDOT | 75 | 41 | 29 | ||||||
| Pemberton | NJ | 2026-05-04 14:40 | NJDOT | 75 | 40 | 28 | ||||||
| Pemberton | NJ | 2026-05-04 14:45 | NJDOT | 75 | 40 | 28 | ||||||
| Pemberton | NJ | 2026-05-04 14:50 | NJDOT | 75 | 40 | 28 | ||||||
| Pemberton | NJ | 2026-05-04 15:00 | NJDOT | 75 | 40 | 28 | ||||||
| Pemberton | NJ | 2026-05-04 15:05 | NJDOT | 75 | 41 | 28 | ||||||
| Pemberton | NJ | 2026-05-04 15:10 | NJDOT | 75 | 41 | 28 | ||||||
| Pemberton | NJ | 2026-05-04 15:15 | NJDOT | 75 | 40 | 28 | ||||||
| Pemberton | NJ | 2026-05-04 15:20 | NJDOT | 76 | 41 | 28 | ||||||
| Pemberton | NJ | 2026-05-04 15:25 | NJDOT | 76 | 41 | 28 | ||||||
| Pemberton | NJ | 2026-05-04 15:30 | NJDOT | 77 | 42 | 28 | ||||||
| Pemberton | NJ | 2026-05-04 15:40 | NJDOT | 76 | 41 | 28 | ||||||
| Pemberton | NJ | 2026-05-04 17:00 | NJDOT | 77 | 41 | 27 | ||||||
| Pemberton | NJ | 2026-05-04 15:45 | NJDOT | 76 | 41 | 28 | ||||||
| Pemberton | NJ | 2026-05-04 15:50 | NJDOT | 77 | 41 | 28 | ||||||
| Pemberton | NJ | 2026-05-04 16:00 | NJDOT | 77 | 41 | 28 | ||||||
| Pemberton | NJ | 2026-05-04 16:05 | NJDOT | 77 | 42 | 28 | ||||||
| Pemberton | NJ | 2026-05-04 16:10 | NJDOT | 77 | 41 | 27 | ||||||
| Pemberton | NJ | 2026-05-04 16:15 | NJDOT | 77 | 41 | 28 | ||||||
| Pemberton | NJ | 2026-05-04 16:20 | NJDOT | 77 | 41 | 27 | ||||||
| Pemberton | NJ | 2026-05-04 16:25 | NJDOT | 78 | 42 | 27 | ||||||
| Pemberton | NJ | 2026-05-04 16:30 | NJDOT | 77 | 41 | 27 | ||||||
| Pemberton | NJ | 2026-05-04 16:35 | NJDOT | 77 | 41 | 27 | ||||||
| Pemberton | NJ | 2026-05-04 16:40 | NJDOT | 77 | 41 | 27 | ||||||
| Pemberton | NJ | 2026-05-04 16:45 | NJDOT | 77 | 41 | 27 | ||||||
| Pemberton | NJ | 2026-05-04 16:50 | NJDOT | 77 | 41 | 27 | ||||||
| Pemberton | NJ | 2026-05-04 08:30 | NJDOT | 53 | 45 | 75 | ||||||
| Pemberton | NJ | 2026-05-04 08:20 | NJDOT | 52 | 46 | 79 | ||||||
| Pemberton | NJ | 2026-05-03 20:10 | NJDOT | 52 | 30 | 41 | ||||||
| Pemberton | NJ | 2026-05-04 01:00 | NJDOT | 40 | 33 | 75 | ||||||
| Pemberton | NJ | 2026-05-03 23:35 | NJDOT | 42 | 33 | 69 | ||||||
| Pemberton | NJ | 2026-05-03 23:40 | NJDOT | 42 | 33 | 69 | ||||||
| Pemberton | NJ | 2026-05-03 23:45 | NJDOT | 42 | 33 | 70 | ||||||
| Pemberton | NJ | 2026-05-03 23:50 | NJDOT | 42 | 33 | 70 | ||||||
| Pemberton | NJ | 2026-05-04 00:00 | NJDOT | 42 | 33 | 70 | ||||||
| Pemberton | NJ | 2026-05-04 00:05 | NJDOT | 42 | 33 | 70 | ||||||
| Pemberton | NJ | 2026-05-04 00:10 | NJDOT | 42 | 33 | 71 | ||||||
| Pemberton | NJ | 2026-05-04 00:15 | NJDOT | 41 | 33 | 72 | ||||||
| Pemberton | NJ | 2026-05-04 00:20 | NJDOT | 41 | 33 | 73 | ||||||
| Pemberton | NJ | 2026-05-04 00:25 | NJDOT | 41 | 33 | 73 | ||||||
| Pemberton | NJ | 2026-05-04 00:30 | NJDOT | 41 | 33 | 73 | ||||||
| Pemberton | NJ | 2026-05-04 00:35 | NJDOT | 41 | 33 | 73 | ||||||
| Pemberton | NJ | 2026-05-04 01:05 | NJDOT | 40 | 33 | 75 | ||||||
| Pemberton | NJ | 2026-05-03 23:25 | NJDOT | 43 | 33 | 67 | ||||||
| Pemberton | NJ | 2026-05-04 01:10 | NJDOT | 40 | 33 | 75 | ||||||
| Pemberton | NJ | 2026-05-04 01:15 | NJDOT | 40 | 33 | 76 | ||||||
| Pemberton | NJ | 2026-05-04 01:20 | NJDOT | 40 | 33 | 76 | ||||||
| Pemberton | NJ | 2026-05-04 01:25 | NJDOT | 40 | 33 | 76 | ||||||
| Pemberton | NJ | 2026-05-04 01:30 | NJDOT | 40 | 33 | 76 | ||||||
| Pemberton | NJ | 2026-05-04 01:35 | NJDOT | 40 | 33 | 77 | ||||||
| Pemberton | NJ | 2026-05-04 01:40 | NJDOT | 40 | 33 | 77 | ||||||
| Pemberton | NJ | 2026-05-04 01:45 | NJDOT | 40 | 34 | 77 | ||||||
| Pemberton | NJ | 2026-05-04 01:50 | NJDOT | 40 | 33 | 78 | ||||||
| Pemberton | NJ | 2026-05-04 02:00 | NJDOT | 40 | 34 | 79 | ||||||
| Pemberton | NJ | 2026-05-04 02:05 | NJDOT | 39 | 34 | 79 | ||||||
| Pemberton | NJ | 2026-05-04 02:10 | NJDOT | 39 | 34 | 80 | ||||||
| Pemberton | NJ | 2026-05-04 02:15 | NJDOT | 39 | 34 | 80 | ||||||
| Pemberton | NJ | 2026-05-03 23:30 | NJDOT | 43 | 33 | 68 | ||||||
| Pemberton | NJ | 2026-05-03 23:20 | NJDOT | 43 | 33 | 67 | ||||||
| Pemberton | NJ | 2026-05-04 02:25 | NJDOT | 39 | 34 | 81 | ||||||
| Pemberton | NJ | 2026-05-03 21:20 | NJDOT | 46 | 33 | 60 | ||||||
| Pemberton | NJ | 2026-05-03 20:15 | NJDOT | 52 | 30 | 43 | ||||||
| Pemberton | NJ | 2026-05-03 20:20 | NJDOT | 51 | 30 | 44 | ||||||
| Pemberton | NJ | 2026-05-03 20:25 | NJDOT | 50 | 31 | 46 | ||||||
| Pemberton | NJ | 2026-05-03 20:30 | NJDOT | 50 | 31 | 48 | ||||||
| Pemberton | NJ | 2026-05-03 20:35 | NJDOT | 49 | 31 | 49 | ||||||
| Pemberton | NJ | 2026-05-03 20:40 | NJDOT | 49 | 32 | 52 | ||||||
| Pemberton | NJ | 2026-05-03 20:45 | NJDOT | 49 | 33 | 53 | ||||||
| Pemberton | NJ | 2026-05-03 20:50 | NJDOT | 48 | 33 | 55 | ||||||
| Pemberton | NJ | 2026-05-03 21:00 | NJDOT | 47 | 33 | 56 | ||||||
| Pemberton | NJ | 2026-05-03 21:05 | NJDOT | 47 | 33 | 57 | ||||||
| Pemberton | NJ | 2026-05-03 21:10 | NJDOT | 47 | 33 | 58 | ||||||
| Pemberton | NJ | 2026-05-03 21:15 | NJDOT | 46 | 33 | 59 | ||||||
| Pemberton | NJ | 2026-05-03 22:00 | NJDOT | 44 | 33 | 63 | ||||||
| Pemberton | NJ | 2026-05-03 23:15 | NJDOT | 43 | 33 | 66 | ||||||
| Pemberton | NJ | 2026-05-03 22:05 | NJDOT | 44 | 33 | 64 | ||||||
| Pemberton | NJ | 2026-05-03 22:10 | NJDOT | 44 | 33 | 64 | ||||||
| Pemberton | NJ | 2026-05-03 22:15 | NJDOT | 44 | 33 | 64 | ||||||
| Pemberton | NJ | 2026-05-03 22:20 | NJDOT | 44 | 33 | 64 | ||||||
| Pemberton | NJ | 2026-05-03 22:25 | NJDOT | 44 | 33 | 64 | ||||||
| Pemberton | NJ | 2026-05-03 22:30 | NJDOT | 44 | 33 | 65 | ||||||
| Pemberton | NJ | 2026-05-03 22:35 | NJDOT | 43 | 33 | 65 | ||||||
| Pemberton | NJ | 2026-05-03 22:40 | NJDOT | 43 | 33 | 65 | ||||||
| Pemberton | NJ | 2026-05-03 22:45 | NJDOT | 43 | 33 | 65 | ||||||
| Pemberton | NJ | 2026-05-03 22:50 | NJDOT | 43 | 33 | 66 | ||||||
| Pemberton | NJ | 2026-05-03 23:00 | NJDOT | 43 | 33 | 66 | ||||||
| Pemberton | NJ | 2026-05-03 23:05 | NJDOT | 43 | 33 | 66 | ||||||
| Pemberton | NJ | 2026-05-03 23:10 | NJDOT | 43 | 33 | 66 | ||||||
| Pemberton | NJ | 2026-05-04 02:20 | NJDOT | 39 | 34 | 81 | ||||||
| Pemberton | NJ | 2026-05-04 02:30 | NJDOT | 39 | 34 | 81 | ||||||
| Pemberton | NJ | 2026-05-04 08:15 | NJDOT | 51 | 46 | 82 | ||||||
| Pemberton | NJ | 2026-05-04 06:40 | NJDOT | 39 | 38 | 96 | ||||||
| Pemberton | NJ | 2026-05-04 05:30 | NJDOT | 40 | 38 | 91 | ||||||
| Pemberton | NJ | 2026-05-04 05:35 | NJDOT | 40 | 38 | 92 | ||||||
| Pemberton | NJ | 2026-05-04 05:40 | NJDOT | 40 | 38 | 92 | ||||||
| Pemberton | NJ | 2026-05-04 05:45 | NJDOT | 40 | 38 | 93 | ||||||
| Pemberton | NJ | 2026-05-04 05:50 | NJDOT | 39 | 38 | 93 | ||||||
| Pemberton | NJ | 2026-05-04 06:00 | NJDOT | 39 | 38 | 94 | ||||||
| Pemberton | NJ | 2026-05-04 06:05 | NJDOT | 39 | 38 | 94 | ||||||
| Pemberton | NJ | 2026-05-04 06:10 | NJDOT | 39 | 38 | 95 | ||||||
| Pemberton | NJ | 2026-05-04 06:15 | NJDOT | 39 | 38 | 95 | ||||||
| Pemberton | NJ | 2026-05-04 06:20 | NJDOT | 39 | 38 | 95 | ||||||
| Pemberton | NJ | 2026-05-04 06:25 | NJDOT | 39 | 38 | 95 | ||||||
| Pemberton | NJ | 2026-05-04 06:30 | NJDOT | 39 | 38 | 96 | ||||||
| Pemberton | NJ | 2026-05-04 07:00 | NJDOT | 40 | 39 | 96 | ||||||
| Pemberton | NJ | 2026-05-04 05:20 | NJDOT | 40 | 37 | 90 | ||||||
| Pemberton | NJ | 2026-05-04 07:05 | NJDOT | 40 | 39 | 96 | ||||||
| Pemberton | NJ | 2026-05-04 07:10 | NJDOT | 40 | 40 | 96 | ||||||
| Pemberton | NJ | 2026-05-04 07:15 | NJDOT | 41 | 40 | 96 | ||||||
| Pemberton | NJ | 2026-05-04 07:20 | NJDOT | 42 | 41 | 96 | ||||||
| Pemberton | NJ | 2026-05-04 07:25 | NJDOT | 42 | 42 | 96 | ||||||
| Pemberton | NJ | 2026-05-04 07:30 | NJDOT | 43 | 42 | 96 | ||||||
| Pemberton | NJ | 2026-05-04 07:35 | NJDOT | 44 | 43 | 94 | ||||||
| Pemberton | NJ | 2026-05-04 07:40 | NJDOT | 45 | 43 | 92 | ||||||
| Pemberton | NJ | 2026-05-04 07:45 | NJDOT | 46 | 44 | 90 | ||||||
| Pemberton | NJ | 2026-05-04 07:50 | NJDOT | 47 | 44 | 89 | ||||||
| Pemberton | NJ | 2026-05-04 08:00 | NJDOT | 49 | 45 | 86 | ||||||
| Pemberton | NJ | 2026-05-04 08:05 | NJDOT | 50 | 46 | 86 | ||||||
| Pemberton | NJ | 2026-05-04 08:10 | NJDOT | 51 | 46 | 84 | ||||||
| Pemberton | NJ | 2026-05-04 05:25 | NJDOT | 40 | 38 | 91 | ||||||
| Pemberton | NJ | 2026-05-04 05:15 | NJDOT | 40 | 37 | 90 | ||||||
| Pemberton | NJ | 2026-05-04 02:35 | NJDOT | 39 | 34 | 81 | ||||||
| Pemberton | NJ | 2026-05-04 03:45 | NJDOT | 38 | 35 | 87 | ||||||
| Pemberton | NJ | 2026-05-04 02:40 | NJDOT | 39 | 34 | 82 | ||||||
| Pemberton | NJ | 2026-05-04 02:45 | NJDOT | 39 | 34 | 82 | ||||||
| Pemberton | NJ | 2026-05-04 02:50 | NJDOT | 39 | 34 | 82 | ||||||
| Pemberton | NJ | 2026-05-04 03:00 | NJDOT | 39 | 34 | 83 | ||||||
| Pemberton | NJ | 2026-05-04 03:05 | NJDOT | 39 | 34 | 84 | ||||||
| Pemberton | NJ | 2026-05-04 03:10 | NJDOT | 38 | 34 | 85 | ||||||
| Pemberton | NJ | 2026-05-04 03:15 | NJDOT | 38 | 35 | 85 | ||||||
| Pemberton | NJ | 2026-05-04 03:20 | NJDOT | 38 | 35 | 86 | ||||||
| Pemberton | NJ | 2026-05-04 03:25 | NJDOT | 38 | 35 | 86 | ||||||
| Pemberton | NJ | 2026-05-04 03:30 | NJDOT | 38 | 35 | 86 | ||||||
| Pemberton | NJ | 2026-05-04 03:35 | NJDOT | 38 | 35 | 86 | ||||||
| Pemberton | NJ | 2026-05-04 03:40 | NJDOT | 38 | 35 | 87 | ||||||
| Pemberton | NJ | 2026-05-04 03:50 | NJDOT | 38 | 35 | 87 | ||||||
| Pemberton | NJ | 2026-05-04 05:10 | NJDOT | 40 | 37 | 90 | ||||||
| Pemberton | NJ | 2026-05-04 04:00 | NJDOT | 38 | 35 | 88 | ||||||
| Pemberton | NJ | 2026-05-04 04:05 | NJDOT | 38 | 35 | 88 | ||||||
| Pemberton | NJ | 2026-05-04 04:10 | NJDOT | 38 | 35 | 88 | ||||||
| Pemberton | NJ | 2026-05-04 04:15 | NJDOT | 39 | 36 | 88 | ||||||
| Pemberton | NJ | 2026-05-04 04:20 | NJDOT | 40 | 37 | 88 | ||||||
| Pemberton | NJ | 2026-05-04 04:25 | NJDOT | 40 | 37 | 88 | ||||||
| Pemberton | NJ | 2026-05-04 04:30 | NJDOT | 40 | 37 | 88 | ||||||
| Pemberton | NJ | 2026-05-04 04:35 | NJDOT | 40 | 37 | 88 | ||||||
| Pemberton | NJ | 2026-05-04 04:40 | NJDOT | 40 | 37 | 88 | ||||||
| Pemberton | NJ | 2026-05-04 04:45 | NJDOT | 40 | 37 | 88 | ||||||
| Pemberton | NJ | 2026-05-04 04:50 | NJDOT | 40 | 37 | 88 | ||||||
| Pemberton | NJ | 2026-05-04 05:00 | NJDOT | 40 | 37 | 89 | ||||||
| Pemberton | NJ | 2026-05-04 05:05 | NJDOT | 40 | 37 | 90 | ||||||
| Pemberton | NJ | 2026-05-04 20:00 | NJDOT | 65 | 42 | 42 |
data collection created in 0.035187005996704 (queried in 0.009111) rendered in: 0.00052618980407715

